sensor_id;sensor_type;location;lat;lon;timestamp;P1;durP1;ratioP1;P2;durP2;ratioP2
48263;SDS011;34086;51.076;13.722;2023-04-24T00:00:25;8.20;;;7.30;;
48263;SDS011;34086;51.076;13.722;2023-04-24T00:01:26;7.53;;;6.72;;
48263;SDS011;34086;51.076;13.722;2023-04-24T00:02:26;7.72;;;6.72;;
48263;SDS011;34086;51.076;13.722;2023-04-24T00:03:27;8.65;;;7.22;;
48263;SDS011;34086;51.076;13.722;2023-04-24T00:04:28;9.00;;;7.93;;
48263;SDS011;34086;51.076;13.722;2023-04-24T00:05:28;10.18;;;7.85;;
48263;SDS011;34086;51.076;13.722;2023-04-24T00:06:29;8.98;;;7.40;;
48263;SDS011;34086;51.076;13.722;2023-04-24T00:07:33;8.20;;;7.38;;
48263;SDS011;34086;51.076;13.722;2023-04-24T00:08:34;7.90;;;7.10;;
48263;SDS011;34086;51.076;13.722;2023-04-24T00:09:36;12.35;;;7.43;;
48263;SDS011;34086;51.076;13.722;2023-04-24T00:10:36;11.15;;;7.93;;
48263;SDS011;34086;51.076;13.722;2023-04-24T00:11:37;11.10;;;8.75;;
48263;SDS011;34086;51.076;13.722;2023-04-24T00:12:38;11.07;;;9.27;;
48263;SDS011;34086;51.076;13.722;2023-04-24T00:13:38;10.13;;;8.25;;
48263;SDS011;34086;51.076;13.722;2023-04-24T00:14:39;9.77;;;7.95;;
48263;SDS011;34086;51.076;13.722;2023-04-24T00:15:40;9.57;;;7.70;;
48263;SDS011;34086;51.076;13.722;2023-04-24T00:16:40;9.13;;;7.43;;
48263;SDS011;34086;51.076;13.722;2023-04-24T00:17:41;8.73;;;7.47;;
48263;SDS011;34086;51.076;13.722;2023-04-24T00:18:41;8.93;;;6.97;;
48263;SDS011;34086;51.076;13.722;2023-04-24T00:19:42;9.80;;;7.90;;
48263;SDS011;34086;51.076;13.722;2023-04-24T00:20:42;9.63;;;8.20;;
48263;SDS011;34086;51.076;13.722;2023-04-24T00:21:43;11.77;;;8.43;;
48263;SDS011;34086;51.076;13.722;2023-04-24T00:22:44;8.88;;;7.78;;
48263;SDS011;34086;51.076;13.722;2023-04-24T00:23:44;8.60;;;7.35;;
48263;SDS011;34086;51.076;13.722;2023-04-24T00:24:45;7.95;;;7.05;;
48263;SDS011;34086;51.076;13.722;2023-04-24T00:25:46;10.30;;;6.82;;
48263;SDS011;34086;51.076;13.722;2023-04-24T00:26:46;8.30;;;6.80;;
48263;SDS011;34086;51.076;13.722;2023-04-24T00:27:47;9.05;;;6.82;;
48263;SDS011;34086;51.076;13.722;2023-04-24T00:28:47;7.85;;;6.57;;
48263;SDS011;34086;51.076;13.722;2023-04-24T00:29:48;8.88;;;6.60;;
48263;SDS011;34086;51.076;13.722;2023-04-24T00:30:49;7.68;;;6.80;;
48263;SDS011;34086;51.076;13.722;2023-04-24T00:31:49;7.85;;;6.65;;
48263;SDS011;34086;51.076;13.722;2023-04-24T00:32:50;8.30;;;6.90;;
48263;SDS011;34086;51.076;13.722;2023-04-24T00:33:51;7.20;;;6.13;;
48263;SDS011;34086;51.076;13.722;2023-04-24T00:34:52;7.38;;;6.60;;
48263;SDS011;34086;51.076;13.722;2023-04-24T00:35:52;7.50;;;6.53;;
48263;SDS011;34086;51.076;13.722;2023-04-24T00:36:53;9.05;;;6.70;;
48263;SDS011;34086;51.076;13.722;2023-04-24T00:37:53;6.80;;;6.10;;
48263;SDS011;34086;51.076;13.722;2023-04-24T00:38:54;7.10;;;6.22;;
48263;SDS011;34086;51.076;13.722;2023-04-24T00:39:55;6.30;;;5.70;;
48263;SDS011;34086;51.076;13.722;2023-04-24T00:40:55;6.40;;;5.80;;
48263;SDS011;34086;51.076;13.722;2023-04-24T00:41:56;7.15;;;6.15;;
48263;SDS011;34086;51.076;13.722;2023-04-24T00:42:57;7.80;;;6.90;;
48263;SDS011;34086;51.076;13.722;2023-04-24T00:43:57;8.70;;;6.45;;
48263;SDS011;34086;51.076;13.722;2023-04-24T00:44:58;8.60;;;6.63;;
48263;SDS011;34086;51.076;13.722;2023-04-24T00:45:59;8.85;;;6.43;;
48263;SDS011;34086;51.076;13.722;2023-04-24T00:47:01;7.50;;;6.53;;
48263;SDS011;34086;51.076;13.722;2023-04-24T00:48:02;7.45;;;6.40;;
48263;SDS011;34086;51.076;13.722;2023-04-24T00:49:04;6.75;;;6.05;;
48263;SDS011;34086;51.076;13.722;2023-04-24T00:50:05;7.63;;;6.07;;
48263;SDS011;34086;51.076;13.722;2023-04-24T00:51:06;7.45;;;6.57;;
48263;SDS011;34086;51.076;13.722;2023-04-24T00:52:07;7.85;;;7.05;;
48263;SDS011;34086;51.076;13.722;2023-04-24T00:53:08;10.00;;;7.00;;
48263;SDS011;34086;51.076;13.722;2023-04-24T00:54:09;7.43;;;6.32;;
48263;SDS011;34086;51.076;13.722;2023-04-24T00:55:10;7.35;;;6.50;;
48263;SDS011;34086;51.076;13.722;2023-04-24T00:56:11;7.68;;;6.45;;
48263;SDS011;34086;51.076;13.722;2023-04-24T00:57:12;7.07;;;6.20;;
48263;SDS011;34086;51.076;13.722;2023-04-24T00:58:14;8.30;;;5.90;;
48263;SDS011;34086;51.076;13.722;2023-04-24T00:59:15;7.82;;;5.93;;
48263;SDS011;34086;51.076;13.722;2023-04-24T01:00:17;6.50;;;5.80;;
48263;SDS011;34086;51.076;13.722;2023-04-24T01:01:21;6.95;;;5.82;;
48263;SDS011;34086;51.076;13.722;2023-04-24T01:02:22;7.97;;;5.70;;
48263;SDS011;34086;51.076;13.722;2023-04-24T01:03:25;7.20;;;6.15;;
48263;SDS011;34086;51.076;13.722;2023-04-24T01:04:28;7.03;;;6.25;;
48263;SDS011;34086;51.076;13.722;2023-04-24T01:05:29;7.32;;;6.20;;
48263;SDS011;34086;51.076;13.722;2023-04-24T01:06:30;9.27;;;6.68;;
48263;SDS011;34086;51.076;13.722;2023-04-24T01:07:31;10.75;;;6.35;;
48263;SDS011;34086;51.076;13.722;2023-04-24T01:08:32;7.32;;;6.20;;
48263;SDS011;34086;51.076;13.722;2023-04-24T01:09:34;8.45;;;6.68;;
48263;SDS011;34086;51.076;13.722;2023-04-24T01:10:36;8.40;;;6.68;;
48263;SDS011;34086;51.076;13.722;2023-04-24T01:11:38;8.27;;;6.97;;
48263;SDS011;34086;51.076;13.722;2023-04-24T01:12:42;9.15;;;7.20;;
48263;SDS011;34086;51.076;13.722;2023-04-24T01:13:43;8.65;;;7.05;;
48263;SDS011;34086;51.076;13.722;2023-04-24T01:14:44;9.50;;;7.05;;
48263;SDS011;34086;51.076;13.722;2023-04-24T01:15:45;7.30;;;6.53;;
48263;SDS011;34086;51.076;13.722;2023-04-24T01:16:46;8.68;;;7.20;;
48263;SDS011;34086;51.076;13.722;2023-04-24T01:17:46;7.93;;;6.47;;
48263;SDS011;34086;51.076;13.722;2023-04-24T01:18:48;8.18;;;6.93;;
48263;SDS011;34086;51.076;13.722;2023-04-24T01:19:48;7.70;;;6.88;;
48263;SDS011;34086;51.076;13.722;2023-04-24T01:20:49;7.38;;;6.57;;
48263;SDS011;34086;51.076;13.722;2023-04-24T01:21:53;8.40;;;6.57;;
48263;SDS011;34086;51.076;13.722;2023-04-24T01:22:56;9.02;;;6.78;;
48263;SDS011;34086;51.076;13.722;2023-04-24T01:23:57;7.15;;;6.18;;
48263;SDS011;34086;51.076;13.722;2023-04-24T01:24:58;8.32;;;6.32;;
48263;SDS011;34086;51.076;13.722;2023-04-24T01:25:58;8.00;;;6.60;;
48263;SDS011;34086;51.076;13.722;2023-04-24T01:26:59;9.50;;;6.47;;
48263;SDS011;34086;51.076;13.722;2023-04-24T01:28:01;9.10;;;6.60;;
48263;SDS011;34086;51.076;13.722;2023-04-24T01:29:01;8.57;;;6.72;;
48263;SDS011;34086;51.076;13.722;2023-04-24T01:30:02;6.93;;;6.22;;
48263;SDS011;34086;51.076;13.722;2023-04-24T01:31:04;8.30;;;6.53;;
48263;SDS011;34086;51.076;13.722;2023-04-24T01:32:05;7.75;;;5.93;;
48263;SDS011;34086;51.076;13.722;2023-04-24T01:33:06;8.77;;;6.47;;
48263;SDS011;34086;51.076;13.722;2023-04-24T01:34:07;8.40;;;6.90;;
48263;SDS011;34086;51.076;13.722;2023-04-24T01:35:08;9.65;;;6.97;;
48263;SDS011;34086;51.076;13.722;2023-04-24T01:36:09;12.85;;;7.60;;
48263;SDS011;34086;51.076;13.722;2023-04-24T01:37:11;8.63;;;6.68;;
48263;SDS011;34086;51.076;13.722;2023-04-24T01:38:12;8.32;;;6.57;;
48263;SDS011;34086;51.076;13.722;2023-04-24T01:39:13;9.65;;;7.05;;
48263;SDS011;34086;51.076;13.722;2023-04-24T01:40:15;8.70;;;6.82;;
48263;SDS011;34086;51.076;13.722;2023-04-24T01:41:15;10.02;;;7.85;;
48263;SDS011;34086;51.076;13.722;2023-04-24T01:42:18;8.95;;;7.25;;
48263;SDS011;34086;51.076;13.722;2023-04-24T01:43:20;8.30;;;7.30;;
48263;SDS011;34086;51.076;13.722;2023-04-24T01:44:21;7.53;;;6.50;;
48263;SDS011;34086;51.076;13.722;2023-04-24T01:45:23;7.28;;;6.55;;
48263;SDS011;34086;51.076;13.722;2023-04-24T01:46:23;8.15;;;6.40;;
48263;SDS011;34086;51.076;13.722;2023-04-24T01:47:24;6.95;;;6.13;;
48263;SDS011;34086;51.076;13.722;2023-04-24T01:48:25;8.63;;;6.45;;
48263;SDS011;34086;51.076;13.722;2023-04-24T01:49:26;9.05;;;6.93;;
48263;SDS011;34086;51.076;13.722;2023-04-24T01:50:27;8.15;;;6.38;;
48263;SDS011;34086;51.076;13.722;2023-04-24T01:51:27;7.18;;;6.20;;
48263;SDS011;34086;51.076;13.722;2023-04-24T01:52:28;9.35;;;7.22;;
48263;SDS011;34086;51.076;13.722;2023-04-24T01:53:31;11.25;;;7.90;;
48263;SDS011;34086;51.076;13.722;2023-04-24T01:54:31;9.82;;;7.50;;
48263;SDS011;34086;51.076;13.722;2023-04-24T01:55:32;8.90;;;7.00;;
48263;SDS011;34086;51.076;13.722;2023-04-24T01:56:33;7.55;;;6.57;;
48263;SDS011;34086;51.076;13.722;2023-04-24T01:57:37;8.30;;;6.90;;
48263;SDS011;34086;51.076;13.722;2023-04-24T01:58:38;11.10;;;7.80;;
48263;SDS011;34086;51.076;13.722;2023-04-24T01:59:39;8.32;;;7.10;;
48263;SDS011;34086;51.076;13.722;2023-04-24T02:00:40;9.25;;;7.22;;
48263;SDS011;34086;51.076;13.722;2023-04-24T02:01:40;8.82;;;7.20;;
48263;SDS011;34086;51.076;13.722;2023-04-24T02:02:41;8.10;;;6.97;;
48263;SDS011;34086;51.076;13.722;2023-04-24T02:03:42;8.10;;;6.43;;
48263;SDS011;34086;51.076;13.722;2023-04-24T02:04:42;7.78;;;6.65;;
48263;SDS011;34086;51.076;13.722;2023-04-24T02:05:43;8.13;;;6.40;;
48263;SDS011;34086;51.076;13.722;2023-04-24T02:06:45;8.50;;;7.10;;
48263;SDS011;34086;51.076;13.722;2023-04-24T02:07:45;10.43;;;7.20;;
48263;SDS011;34086;51.076;13.722;2023-04-24T02:08:46;8.50;;;7.15;;
48263;SDS011;34086;51.076;13.722;2023-04-24T02:09:46;11.15;;;7.47;;
48263;SDS011;34086;51.076;13.722;2023-04-24T02:10:48;9.60;;;7.38;;
48263;SDS011;34086;51.076;13.722;2023-04-24T02:11:49;8.60;;;7.00;;
48263;SDS011;34086;51.076;13.722;2023-04-24T02:12:49;8.48;;;6.95;;
48263;SDS011;34086;51.076;13.722;2023-04-24T02:13:50;8.23;;;6.55;;
48263;SDS011;34086;51.076;13.722;2023-04-24T02:14:51;7.10;;;6.18;;
48263;SDS011;34086;51.076;13.722;2023-04-24T02:15:52;7.97;;;6.32;;
48263;SDS011;34086;51.076;13.722;2023-04-24T02:16:52;7.75;;;6.30;;
48263;SDS011;34086;51.076;13.722;2023-04-24T02:17:53;7.50;;;6.28;;
48263;SDS011;34086;51.076;13.722;2023-04-24T02:18:54;7.80;;;6.63;;
48263;SDS011;34086;51.076;13.722;2023-04-24T02:19:54;8.63;;;6.53;;
48263;SDS011;34086;51.076;13.722;2023-04-24T02:20:55;8.88;;;6.43;;
48263;SDS011;34086;51.076;13.722;2023-04-24T02:21:55;7.35;;;6.55;;
48263;SDS011;34086;51.076;13.722;2023-04-24T02:22:56;6.78;;;6.05;;
48263;SDS011;34086;51.076;13.722;2023-04-24T02:23:57;8.13;;;6.40;;
48263;SDS011;34086;51.076;13.722;2023-04-24T02:24:58;6.97;;;6.20;;
48263;SDS011;34086;51.076;13.722;2023-04-24T02:25:58;6.90;;;6.20;;
48263;SDS011;34086;51.076;13.722;2023-04-24T02:26:59;8.23;;;6.45;;
48263;SDS011;34086;51.076;13.722;2023-04-24T02:28:00;7.18;;;6.20;;
48263;SDS011;34086;51.076;13.722;2023-04-24T02:29:01;8.23;;;6.20;;
48263;SDS011;34086;51.076;13.722;2023-04-24T02:30:01;8.23;;;6.40;;
48263;SDS011;34086;51.076;13.722;2023-04-24T02:31:03;9.23;;;6.03;;
48263;SDS011;34086;51.076;13.722;2023-04-24T02:32:03;8.27;;;6.97;;
48263;SDS011;34086;51.076;13.722;2023-04-24T02:33:04;7.50;;;6.68;;
48263;SDS011;34086;51.076;13.722;2023-04-24T02:34:05;7.75;;;6.72;;
48263;SDS011;34086;51.076;13.722;2023-04-24T02:35:05;6.90;;;6.20;;
48263;SDS011;34086;51.076;13.722;2023-04-24T02:36:06;7.18;;;5.97;;
48263;SDS011;34086;51.076;13.722;2023-04-24T02:37:07;8.30;;;6.57;;
48263;SDS011;34086;51.076;13.722;2023-04-24T02:38:08;7.90;;;6.35;;
48263;SDS011;34086;51.076;13.722;2023-04-24T02:39:10;10.55;;;7.25;;
48263;SDS011;34086;51.076;13.722;2023-04-24T02:40:10;9.70;;;7.38;;
48263;SDS011;34086;51.076;13.722;2023-04-24T02:41:11;9.93;;;6.85;;
48263;SDS011;34086;51.076;13.722;2023-04-24T02:42:11;8.82;;;6.82;;
48263;SDS011;34086;51.076;13.722;2023-04-24T02:43:12;10.75;;;7.00;;
48263;SDS011;34086;51.076;13.722;2023-04-24T02:44:13;9.20;;;7.13;;
48263;SDS011;34086;51.076;13.722;2023-04-24T02:45:13;8.48;;;6.93;;
48263;SDS011;34086;51.076;13.722;2023-04-24T02:46:14;12.05;;;7.60;;
48263;SDS011;34086;51.076;13.722;2023-04-24T02:47:15;9.25;;;7.72;;
48263;SDS011;34086;51.076;13.722;2023-04-24T02:48:15;7.65;;;6.40;;
48263;SDS011;34086;51.076;13.722;2023-04-24T02:49:17;7.03;;;6.25;;
48263;SDS011;34086;51.076;13.722;2023-04-24T02:50:17;8.65;;;6.80;;
48263;SDS011;34086;51.076;13.722;2023-04-24T02:51:18;8.43;;;7.32;;
48263;SDS011;34086;51.076;13.722;2023-04-24T02:52:18;10.43;;;7.50;;
48263;SDS011;34086;51.076;13.722;2023-04-24T02:53:19;8.82;;;7.57;;
48263;SDS011;34086;51.076;13.722;2023-04-24T02:54:19;9.65;;;7.45;;
48263;SDS011;34086;51.076;13.722;2023-04-24T02:55:20;8.52;;;7.10;;
48263;SDS011;34086;51.076;13.722;2023-04-24T02:56:21;8.20;;;6.80;;
48263;SDS011;34086;51.076;13.722;2023-04-24T02:57:21;9.18;;;7.47;;
48263;SDS011;34086;51.076;13.722;2023-04-24T02:58:22;8.85;;;6.90;;
48263;SDS011;34086;51.076;13.722;2023-04-24T02:59:22;8.45;;;7.10;;
48263;SDS011;34086;51.076;13.722;2023-04-24T03:00:23;8.00;;;7.03;;
48263;SDS011;34086;51.076;13.722;2023-04-24T03:01:24;9.95;;;7.35;;
48263;SDS011;34086;51.076;13.722;2023-04-24T03:02:25;7.68;;;6.80;;
48263;SDS011;34086;51.076;13.722;2023-04-24T03:03:25;7.95;;;6.97;;
48263;SDS011;34086;51.076;13.722;2023-04-24T03:04:26;8.18;;;7.20;;
48263;SDS011;34086;51.076;13.722;2023-04-24T03:05:26;10.98;;;7.88;;
48263;SDS011;34086;51.076;13.722;2023-04-24T03:06:27;9.05;;;7.00;;
48263;SDS011;34086;51.076;13.722;2023-04-24T03:07:28;8.77;;;7.18;;
48263;SDS011;34086;51.076;13.722;2023-04-24T03:08:28;9.38;;;7.28;;
48263;SDS011;34086;51.076;13.722;2023-04-24T03:09:29;9.15;;;7.50;;
48263;SDS011;34086;51.076;13.722;2023-04-24T03:10:29;7.65;;;6.85;;
48263;SDS011;34086;51.076;13.722;2023-04-24T03:11:30;8.20;;;6.90;;
48263;SDS011;34086;51.076;13.722;2023-04-24T03:12:31;8.13;;;6.70;;
48263;SDS011;34086;51.076;13.722;2023-04-24T03:13:31;8.75;;;7.25;;
48263;SDS011;34086;51.076;13.722;2023-04-24T03:14:32;8.45;;;6.75;;
48263;SDS011;34086;51.076;13.722;2023-04-24T03:15:33;7.43;;;6.35;;
48263;SDS011;34086;51.076;13.722;2023-04-24T03:16:33;9.10;;;7.43;;
48263;SDS011;34086;51.076;13.722;2023-04-24T03:17:34;7.97;;;6.78;;
48263;SDS011;34086;51.076;13.722;2023-04-24T03:18:35;7.38;;;6.25;;
48263;SDS011;34086;51.076;13.722;2023-04-24T03:19:38;7.78;;;6.13;;
48263;SDS011;34086;51.076;13.722;2023-04-24T03:20:45;6.93;;;6.07;;
48263;SDS011;34086;51.076;13.722;2023-04-24T03:21:47;8.52;;;6.65;;
48263;SDS011;34086;51.076;13.722;2023-04-24T03:22:48;7.50;;;6.47;;
48263;SDS011;34086;51.076;13.722;2023-04-24T03:23:50;7.57;;;6.10;;
48263;SDS011;34086;51.076;13.722;2023-04-24T03:24:50;6.70;;;5.60;;
48263;SDS011;34086;51.076;13.722;2023-04-24T03:25:52;6.95;;;5.88;;
48263;SDS011;34086;51.076;13.722;2023-04-24T03:26:54;8.30;;;5.60;;
48263;SDS011;34086;51.076;13.722;2023-04-24T03:28:21;7.63;;;5.85;;
48263;SDS011;34086;51.076;13.722;2023-04-24T03:29:28;7.32;;;5.93;;
48263;SDS011;34086;51.076;13.722;2023-04-24T03:30:29;6.80;;;5.95;;
48263;SDS011;34086;51.076;13.722;2023-04-24T03:31:33;8.13;;;5.80;;
48263;SDS011;34086;51.076;13.722;2023-04-24T03:32:34;7.05;;;5.80;;
48263;SDS011;34086;51.076;13.722;2023-04-24T03:33:35;6.82;;;5.95;;
48263;SDS011;34086;51.076;13.722;2023-04-24T03:34:36;6.90;;;6.10;;
48263;SDS011;34086;51.076;13.722;2023-04-24T03:35:36;6.78;;;6.07;;
48263;SDS011;34086;51.076;13.722;2023-04-24T03:36:42;7.25;;;5.82;;
48263;SDS011;34086;51.076;13.722;2023-04-24T03:37:42;6.22;;;5.55;;
48263;SDS011;34086;51.076;13.722;2023-04-24T03:39:02;5.95;;;5.25;;
48263;SDS011;34086;51.076;13.722;2023-04-24T03:40:06;7.35;;;5.88;;
48263;SDS011;34086;51.076;13.722;2023-04-24T03:41:09;6.10;;;5.43;;
48263;SDS011;34086;51.076;13.722;2023-04-24T03:42:18;6.95;;;5.78;;
48263;SDS011;34086;51.076;13.722;2023-04-24T03:43:25;6.63;;;5.82;;
48263;SDS011;34086;51.076;13.722;2023-04-24T03:44:30;7.65;;;5.88;;
48263;SDS011;34086;51.076;13.722;2023-04-24T03:45:31;6.45;;;5.53;;
48263;SDS011;34086;51.076;13.722;2023-04-24T03:46:31;8.68;;;4.43;;
48263;SDS011;34086;51.076;13.722;2023-04-24T03:47:33;6.03;;;4.40;;
48263;SDS011;34086;51.076;13.722;2023-04-24T03:48:38;6.43;;;5.15;;
48263;SDS011;34086;51.076;13.722;2023-04-24T03:49:39;6.70;;;4.60;;
48263;SDS011;34086;51.076;13.722;2023-04-24T03:50:40;5.88;;;4.30;;
48263;SDS011;34086;51.076;13.722;2023-04-24T03:51:44;5.97;;;4.18;;
48263;SDS011;34086;51.076;13.722;2023-04-24T03:52:54;7.40;;;4.93;;
48263;SDS011;34086;51.076;13.722;2023-04-24T03:54:07;8.32;;;4.90;;
48263;SDS011;34086;51.076;13.722;2023-04-24T03:55:10;9.23;;;5.00;;
48263;SDS011;34086;51.076;13.722;2023-04-24T03:56:16;8.23;;;3.95;;
48263;SDS011;34086;51.076;13.722;2023-04-24T03:57:17;6.00;;;3.92;;
48263;SDS011;34086;51.076;13.722;2023-04-24T03:58:28;7.85;;;4.18;;
48263;SDS011;34086;51.076;13.722;2023-04-24T03:59:30;7.53;;;4.20;;
48263;SDS011;34086;51.076;13.722;2023-04-24T04:00:56;5.10;;;3.60;;
48263;SDS011;34086;51.076;13.722;2023-04-24T04:02:19;6.15;;;3.40;;
48263;SDS011;34086;51.076;13.722;2023-04-24T04:03:20;4.85;;;3.40;;
48263;SDS011;34086;51.076;13.722;2023-04-24T04:04:21;5.70;;;3.38;;
48263;SDS011;34086;51.076;13.722;2023-04-24T04:05:21;6.97;;;2.97;;
48263;SDS011;34086;51.076;13.722;2023-04-24T04:06:22;3.35;;;2.80;;
48263;SDS011;34086;51.076;13.722;2023-04-24T04:07:24;4.20;;;3.00;;
48263;SDS011;34086;51.076;13.722;2023-04-24T04:08:26;3.92;;;2.67;;
48263;SDS011;34086;51.076;13.722;2023-04-24T04:09:26;3.78;;;2.38;;
48263;SDS011;34086;51.076;13.722;2023-04-24T04:10:27;4.80;;;2.90;;
48263;SDS011;34086;51.076;13.722;2023-04-24T04:11:28;3.40;;;2.38;;
48263;SDS011;34086;51.076;13.722;2023-04-24T04:12:28;3.63;;;2.28;;
48263;SDS011;34086;51.076;13.722;2023-04-24T04:13:30;4.07;;;2.50;;
48263;SDS011;34086;51.076;13.722;2023-04-24T04:14:31;4.00;;;2.17;;
48263;SDS011;34086;51.076;13.722;2023-04-24T04:15:31;3.80;;;2.40;;
48263;SDS011;34086;51.076;13.722;2023-04-24T04:16:32;2.75;;;2.17;;
48263;SDS011;34086;51.076;13.722;2023-04-24T04:17:36;2.47;;;2.10;;
48263;SDS011;34086;51.076;13.722;2023-04-24T04:18:40;2.58;;;2.05;;
48263;SDS011;34086;51.076;13.722;2023-04-24T04:19:41;2.22;;;2.00;;
48263;SDS011;34086;51.076;13.722;2023-04-24T04:20:42;2.22;;;1.92;;
48263;SDS011;34086;51.076;13.722;2023-04-24T04:21:43;3.22;;;2.10;;
48263;SDS011;34086;51.076;13.722;2023-04-24T04:23:18;3.67;;;2.00;;
48263;SDS011;34086;51.076;13.722;2023-04-24T04:24:41;3.75;;;2.03;;
48263;SDS011;34086;51.076;13.722;2023-04-24T04:25:44;3.30;;;1.85;;
48263;SDS011;34086;51.076;13.722;2023-04-24T04:26:44;4.32;;;2.05;;
48263;SDS011;34086;51.076;13.722;2023-04-24T04:27:51;2.60;;;2.00;;
48263;SDS011;34086;51.076;13.722;2023-04-24T04:28:52;2.38;;;1.90;;
48263;SDS011;34086;51.076;13.722;2023-04-24T04:29:53;2.13;;;1.92;;
48263;SDS011;34086;51.076;13.722;2023-04-24T04:30:57;2.00;;;1.70;;
48263;SDS011;34086;51.076;13.722;2023-04-24T04:31:58;2.50;;;1.90;;
48263;SDS011;34086;51.076;13.722;2023-04-24T04:32:59;2.40;;;1.90;;
48263;SDS011;34086;51.076;13.722;2023-04-24T04:34:00;4.97;;;1.90;;
48263;SDS011;34086;51.076;13.722;2023-04-24T04:35:01;5.30;;;1.75;;
48263;SDS011;34086;51.076;13.722;2023-04-24T04:36:04;2.25;;;1.73;;
48263;SDS011;34086;51.076;13.722;2023-04-24T04:37:06;4.63;;;2.03;;
48263;SDS011;34086;51.076;13.722;2023-04-24T04:38:42;5.97;;;2.10;;
48263;SDS011;34086;51.076;13.722;2023-04-24T04:39:58;4.60;;;2.10;;
48263;SDS011;34086;51.076;13.722;2023-04-24T04:41:11;2.13;;;1.90;;
48263;SDS011;34086;51.076;13.722;2023-04-24T04:42:12;4.00;;;1.77;;
48263;SDS011;34086;51.076;13.722;2023-04-24T04:43:15;2.78;;;2.00;;
48263;SDS011;34086;51.076;13.722;2023-04-24T04:44:22;1.77;;;1.60;;
48263;SDS011;34086;51.076;13.722;2023-04-24T04:45:24;1.70;;;1.60;;
48263;SDS011;34086;51.076;13.722;2023-04-24T04:46:45;3.75;;;1.70;;
48263;SDS011;34086;51.076;13.722;2023-04-24T04:48:01;1.70;;;1.60;;
48263;SDS011;34086;51.076;13.722;2023-04-24T04:49:04;2.22;;;1.70;;
48263;SDS011;34086;51.076;13.722;2023-04-24T04:50:05;2.30;;;1.80;;
48263;SDS011;34086;51.076;13.722;2023-04-24T04:51:06;2.92;;;1.77;;
48263;SDS011;34086;51.076;13.722;2023-04-24T04:52:07;1.95;;;1.73;;
48263;SDS011;34086;51.076;13.722;2023-04-24T04:53:07;1.92;;;1.70;;
48263;SDS011;34086;51.076;13.722;2023-04-24T04:54:11;1.70;;;1.60;;
48263;SDS011;34086;51.076;13.722;2023-04-24T04:55:12;1.83;;;1.65;;
48263;SDS011;34086;51.076;13.722;2023-04-24T04:56:40;2.35;;;1.60;;
48263;SDS011;34086;51.076;13.722;2023-04-24T04:57:40;2.40;;;2.15;;
48263;SDS011;34086;51.076;13.722;2023-04-24T04:58:41;4.45;;;2.10;;
48263;SDS011;34086;51.076;13.722;2023-04-24T04:59:46;3.60;;;2.90;;
48263;SDS011;34086;51.076;13.722;2023-04-24T05:00:54;7.10;;;4.85;;
48263;SDS011;34086;51.076;13.722;2023-04-24T05:02:02;9.18;;;5.80;;
48263;SDS011;34086;51.076;13.722;2023-04-24T05:03:04;10.75;;;6.80;;
48263;SDS011;34086;51.076;13.722;2023-04-24T05:04:05;17.73;;;8.93;;
48263;SDS011;34086;51.076;13.722;2023-04-24T05:05:06;10.68;;;6.68;;
48263;SDS011;34086;51.076;13.722;2023-04-24T05:06:07;9.13;;;5.80;;
48263;SDS011;34086;51.076;13.722;2023-04-24T05:07:11;11.32;;;6.15;;
48263;SDS011;34086;51.076;13.722;2023-04-24T05:08:14;14.73;;;7.32;;
48263;SDS011;34086;51.076;13.722;2023-04-24T05:09:15;9.48;;;5.47;;
48263;SDS011;34086;51.076;13.722;2023-04-24T05:10:25;10.90;;;5.45;;
48263;SDS011;34086;51.076;13.722;2023-04-24T05:11:28;8.77;;;5.47;;
48263;SDS011;34086;51.076;13.722;2023-04-24T05:12:30;10.32;;;5.95;;
48263;SDS011;34086;51.076;13.722;2023-04-24T05:13:31;10.20;;;5.90;;
48263;SDS011;34086;51.076;13.722;2023-04-24T05:14:33;9.85;;;5.30;;
48263;SDS011;34086;51.076;13.722;2023-04-24T05:15:34;8.52;;;5.43;;
48263;SDS011;34086;51.076;13.722;2023-04-24T05:16:35;9.35;;;5.38;;
48263;SDS011;34086;51.076;13.722;2023-04-24T05:17:37;8.35;;;4.97;;
48263;SDS011;34086;51.076;13.722;2023-04-24T05:18:40;6.47;;;4.03;;
48263;SDS011;34086;51.076;13.722;2023-04-24T05:19:43;6.03;;;4.20;;
48263;SDS011;34086;51.076;13.722;2023-04-24T05:20:44;7.78;;;5.13;;
48263;SDS011;34086;51.076;13.722;2023-04-24T05:21:45;6.13;;;4.60;;
48263;SDS011;34086;51.076;13.722;2023-04-24T05:22:46;5.03;;;4.03;;
48263;SDS011;34086;51.076;13.722;2023-04-24T05:23:47;6.65;;;4.30;;
48263;SDS011;34086;51.076;13.722;2023-04-24T05:24:54;3.83;;;3.42;;
48263;SDS011;34086;51.076;13.722;2023-04-24T05:26:09;4.47;;;3.35;;
48263;SDS011;34086;51.076;13.722;2023-04-24T05:27:10;4.47;;;3.40;;
48263;SDS011;34086;51.076;13.722;2023-04-24T05:28:14;5.00;;;2.90;;
48263;SDS011;34086;51.076;13.722;2023-04-24T05:29:15;3.25;;;2.95;;
48263;SDS011;34086;51.076;13.722;2023-04-24T05:30:16;4.38;;;2.80;;
48263;SDS011;34086;51.076;13.722;2023-04-24T05:31:17;3.47;;;2.40;;
48263;SDS011;34086;51.076;13.722;2023-04-24T05:32:18;3.85;;;2.45;;
48263;SDS011;34086;51.076;13.722;2023-04-24T05:33:18;3.78;;;2.60;;
48263;SDS011;34086;51.076;13.722;2023-04-24T05:34:19;3.65;;;2.40;;
48263;SDS011;34086;51.076;13.722;2023-04-24T05:35:23;3.30;;;2.30;;
48263;SDS011;34086;51.076;13.722;2023-04-24T05:36:24;4.43;;;2.40;;
48263;SDS011;34086;51.076;13.722;2023-04-24T05:37:25;2.60;;;2.40;;
48263;SDS011;34086;51.076;13.722;2023-04-24T05:38:26;4.85;;;2.38;;
48263;SDS011;34086;51.076;13.722;2023-04-24T05:39:26;3.00;;;2.10;;
48263;SDS011;34086;51.076;13.722;2023-04-24T05:40:28;3.30;;;2.08;;
48263;SDS011;34086;51.076;13.722;2023-04-24T05:41:28;2.42;;;2.05;;
48263;SDS011;34086;51.076;13.722;2023-04-24T05:42:29;2.30;;;2.03;;
48263;SDS011;34086;51.076;13.722;2023-04-24T05:43:31;4.15;;;2.28;;
48263;SDS011;34086;51.076;13.722;2023-04-24T05:44:31;4.35;;;2.28;;
48263;SDS011;34086;51.076;13.722;2023-04-24T05:45:33;4.20;;;2.15;;
48263;SDS011;34086;51.076;13.722;2023-04-24T05:46:35;2.58;;;1.70;;
48263;SDS011;34086;51.076;13.722;2023-04-24T05:47:36;3.63;;;1.90;;
48263;SDS011;34086;51.076;13.722;2023-04-24T05:48:37;2.67;;;1.95;;
48263;SDS011;34086;51.076;13.722;2023-04-24T05:49:38;3.63;;;1.95;;
48263;SDS011;34086;51.076;13.722;2023-04-24T05:50:39;3.00;;;2.25;;
48263;SDS011;34086;51.076;13.722;2023-04-24T05:51:40;3.92;;;2.25;;
48263;SDS011;34086;51.076;13.722;2023-04-24T05:52:41;4.72;;;2.88;;
48263;SDS011;34086;51.076;13.722;2023-04-24T05:53:55;3.70;;;2.90;;
48263;SDS011;34086;51.076;13.722;2023-04-24T05:54:55;3.28;;;2.80;;
48263;SDS011;34086;51.076;13.722;2023-04-24T05:55:59;5.72;;;3.03;;
48263;SDS011;34086;51.076;13.722;2023-04-24T05:57:00;4.63;;;2.25;;
48263;SDS011;34086;51.076;13.722;2023-04-24T05:58:17;7.22;;;2.42;;
48263;SDS011;34086;51.076;13.722;2023-04-24T05:59:20;3.10;;;2.00;;
48263;SDS011;34086;51.076;13.722;2023-04-24T06:00:22;3.95;;;2.00;;
48263;SDS011;34086;51.076;13.722;2023-04-24T06:01:32;4.60;;;1.75;;
48263;SDS011;34086;51.076;13.722;2023-04-24T06:02:41;4.65;;;1.83;;
48263;SDS011;34086;51.076;13.722;2023-04-24T06:03:45;4.63;;;2.10;;
48263;SDS011;34086;51.076;13.722;2023-04-24T06:04:45;4.72;;;1.92;;
48263;SDS011;34086;51.076;13.722;2023-04-24T06:05:46;5.05;;;1.70;;
48263;SDS011;34086;51.076;13.722;2023-04-24T06:06:47;8.77;;;2.00;;
48263;SDS011;34086;51.076;13.722;2023-04-24T06:07:51;5.18;;;1.70;;
48263;SDS011;34086;51.076;13.722;2023-04-24T06:08:51;7.60;;;2.15;;
48263;SDS011;34086;51.076;13.722;2023-04-24T06:09:52;5.68;;;2.13;;